Terminal Aerodrome Forecast
Issued by NWS Twin Cities, MN

Home | Current Version | Previous Version | Text Only | Print | Product List | Glossary Off
Versions: 1 2 3 4 5 6 7 8 9 10 11 12 13 14 15 16 17 18 19 20 21 22 23 24 25 26 27 28 29

000
FTUS43 KMPX 080313 AAA
TAFMSP
TAF AMD
KMSP 080313Z 0803/0906 23008KT P6SM OVC080
     FM081100 28005KT P6SM SCT014 OVC020
     FM081500 29007KT P6SM BKN015 OVC020
     FM082300 27009KT 2SM -SN SCT010 OVC015
     FM090200 31012G20KT P6SM OVC020=

USA.gov is the U.S. government's official web portal to all federal, state and local government web resources and services.